createdAt,value
2019-01-17T00:02:15.267Z,26.03
2019-01-17T00:05:04.754Z,30.80
2019-01-17T00:08:12.772Z,29.60
2019-01-17T00:10:51.099Z,20.00
2019-01-17T00:13:50.978Z,30.47
2019-01-17T00:16:56.272Z,24.50
2019-01-17T00:19:55.145Z,31.43
2019-01-17T00:22:46.584Z,32.33
2019-01-17T00:25:34.858Z,37.57
2019-01-17T00:28:27.689Z,27.40
2019-01-17T00:31:17.905Z,35.87
2019-01-17T00:34:00.126Z,29.67
2019-01-17T00:36:55.250Z,26.33
2019-01-17T00:39:47.552Z,29.00
2019-01-17T00:42:31.630Z,27.70
2019-01-17T00:45:36.119Z,27.23
2019-01-17T00:48:15.947Z,28.10
2019-01-17T00:51:08.174Z,25.50
2019-01-17T00:53:57.434Z,22.93
2019-01-17T00:56:47.709Z,21.57
2019-01-17T00:59:46.300Z,24.60
2019-01-17T01:02:44.638Z,17.10
2019-01-17T01:05:33.194Z,16.00
2019-01-17T01:08:23.159Z,15.73
2019-01-17T01:11:31.776Z,21.10
2019-01-17T01:14:21.287Z,16.43
2019-01-17T01:17:14.067Z,19.33
2019-01-17T01:20:18.525Z,16.20
2019-01-17T01:23:26.468Z,24.03
2019-01-17T01:26:17.534Z,19.30
2019-01-17T01:29:22.410Z,18.73
2019-01-17T01:32:19.534Z,19.07
2019-01-17T01:35:24.056Z,23.67
2019-01-17T01:38:12.580Z,18.73
2019-01-17T01:40:52.129Z,19.53
2019-01-17T01:43:41.515Z,30.00
2019-01-17T01:46:43.237Z,25.90
2019-01-17T01:49:35.615Z,29.77
2019-01-17T01:52:14.236Z,30.60
2019-01-17T01:54:44.899Z,29.30
2019-01-17T01:57:16.426Z,29.13
2019-01-17T01:59:47.159Z,26.43
2019-01-17T02:02:17.626Z,25.63
2019-01-17T02:04:48.254Z,25.07
2019-01-17T02:07:18.677Z,21.10
2019-01-17T02:09:49.138Z,15.67
2019-01-17T02:12:19.605Z,19.57
2019-01-17T02:14:50.441Z,23.70
2019-01-17T02:17:21.152Z,20.53
2019-01-17T02:19:51.676Z,22.57
2019-01-17T02:22:22.214Z,16.47
2019-01-17T02:24:52.841Z,13.60
2019-01-17T02:27:23.459Z,22.37
2019-01-17T02:29:53.900Z,24.53
2019-01-17T02:32:24.385Z,25.77
2019-01-17T02:34:54.797Z,24.47
2019-01-17T02:37:25.345Z,37.27
2019-01-17T02:39:57.841Z,36.53
2019-01-17T02:42:28.384Z,35.40
2019-01-17T02:44:59.097Z,35.03
2019-01-17T02:47:29.522Z,43.97
2019-01-17T02:50:00.485Z,42.00
2019-01-17T02:52:31.069Z,41.07
2019-01-17T02:55:01.512Z,47.63
2019-01-17T02:57:33.535Z,38.97
2019-01-17T03:00:05.264Z,39.03
2019-01-17T03:02:35.852Z,44.13
2019-01-17T03:05:07.099Z,37.03
2019-01-17T03:07:37.623Z,41.30
2019-01-17T03:10:11.881Z,24.60
2019-01-17T03:12:42.735Z,21.07
2019-01-17T03:15:13.510Z,20.57
2019-01-17T03:17:44.301Z,14.60
2019-01-17T03:20:15.248Z,18.63
2019-01-17T03:22:45.747Z,22.23
2019-01-17T03:25:16.462Z,19.60
2019-01-17T03:27:47.130Z,19.20
2019-01-17T03:30:19.206Z,20.87
2019-01-17T03:32:49.763Z,16.87
2019-01-17T03:35:20.394Z,16.97
2019-01-17T03:37:50.985Z,15.87
2019-01-17T03:40:21.530Z,18.17
2019-01-17T03:42:52.001Z,15.23
2019-01-17T03:45:22.419Z,10.83
2019-01-17T03:47:52.911Z,10.93
2019-01-17T03:50:23.533Z,16.30
2019-01-17T03:52:54.112Z,13.33
2019-01-17T03:55:24.998Z,10.80
2019-01-17T03:57:56.343Z,10.73
2019-01-17T04:00:27.197Z,9.13
2019-01-17T04:02:57.839Z,12.20
2019-01-17T04:05:28.491Z,10.63
2019-01-17T04:07:58.935Z,7.90
2019-01-17T04:10:30.563Z,9.30
2019-01-17T04:13:02.299Z,8.23
2019-01-17T04:15:33.152Z,8.23
2019-01-17T04:18:03.640Z,7.17
2019-01-17T04:20:34.253Z,10.80
2019-01-17T04:23:04.841Z,9.60
2019-01-17T04:25:35.518Z,14.10
2019-01-17T04:28:06.083Z,22.20
2019-01-17T04:30:36.600Z,18.00
2019-01-17T04:33:07.299Z,17.73
2019-01-17T04:35:37.736Z,22.67
2019-01-17T04:38:08.217Z,19.40
2019-01-17T04:40:38.744Z,20.97
2019-01-17T04:43:09.444Z,16.63
2019-01-17T04:45:41.953Z,18.17
2019-01-17T04:48:12.553Z,15.90
2019-01-17T04:50:43.714Z,16.67
2019-01-17T04:53:15.431Z,15.10
2019-01-17T04:55:46.129Z,15.27
2019-01-17T04:58:16.846Z,16.63
2019-01-17T05:00:47.580Z,18.80
2019-01-17T05:03:18.054Z,15.17
2019-01-17T05:05:48.569Z,16.83
2019-01-17T05:08:19.498Z,16.20
2019-01-17T05:10:50.164Z,17.37
2019-01-17T05:13:21.148Z,19.20
2019-01-17T05:15:51.633Z,11.43
2019-01-17T05:18:22.286Z,15.33
2019-01-17T05:20:52.893Z,19.10
2019-01-17T05:23:24.489Z,22.17
2019-01-17T05:25:54.895Z,19.93
2019-01-17T05:28:25.386Z,20.13
2019-01-17T05:30:55.940Z,13.97
2019-01-17T05:33:26.437Z,19.57
2019-01-17T05:35:56.852Z,16.07
2019-01-17T05:38:27.412Z,14.33
2019-01-17T05:40:58.016Z,13.33
2019-01-17T05:43:29.326Z,18.33
2019-01-17T05:45:59.855Z,13.47
2019-01-17T05:48:30.448Z,13.68
2019-01-17T05:51:00.919Z,11.47
2019-01-17T05:53:31.635Z,15.90
2019-01-17T05:56:02.207Z,12.40
2019-01-17T05:58:33.941Z,9.10
2019-01-17T06:01:04.835Z,13.30
2019-01-17T06:03:35.511Z,16.80
2019-01-17T06:06:06.043Z,14.37
2019-01-17T06:08:36.640Z,14.33
2019-01-17T06:11:07.934Z,16.37
2019-01-17T06:13:38.475Z,14.30
2019-01-17T06:16:09.197Z,12.97
2019-01-17T06:18:39.886Z,12.07
2019-01-17T06:21:10.599Z,10.07
2019-01-17T06:23:42.683Z,12.20
2019-01-17T06:26:13.660Z,13.27
2019-01-17T06:28:44.255Z,14.43
2019-01-17T06:31:15.229Z,11.70
2019-01-17T06:33:45.896Z,9.00
2019-01-17T06:36:16.595Z,9.07
2019-01-17T06:38:47.174Z,10.80
2019-01-17T06:41:18.011Z,8.77
2019-01-17T06:43:48.631Z,8.40
2019-01-17T06:46:19.688Z,12.80
2019-01-17T06:48:50.467Z,7.17
2019-01-17T06:51:21.238Z,7.53
2019-01-17T06:53:52.031Z,12.97
2019-01-17T06:56:22.807Z,9.50
2019-01-17T06:58:53.415Z,8.53
2019-01-17T07:01:24.528Z,13.87
2019-01-17T07:03:55.278Z,9.10
2019-01-17T07:06:25.952Z,8.87
2019-01-17T07:08:56.685Z,7.20
2019-01-17T07:11:27.167Z,6.10
2019-01-17T07:13:57.823Z,16.77
2019-01-17T07:16:29.728Z,13.07
2019-01-17T07:19:00.349Z,11.30
2019-01-17T07:21:31.227Z,10.90
2019-01-17T07:24:02.060Z,9.10
2019-01-17T07:26:32.935Z,11.83
2019-01-17T07:29:03.687Z,9.77
2019-01-17T07:31:34.375Z,11.47
2019-01-17T07:34:05.365Z,9.93
2019-01-17T07:36:36.134Z,10.27
2019-01-17T07:39:08.482Z,8.50
2019-01-17T07:41:38.985Z,11.73
2019-01-17T07:44:09.520Z,11.67
2019-01-17T07:46:40.231Z,12.67
2019-01-17T07:49:10.729Z,23.27
2019-01-17T07:51:41.378Z,18.57
2019-01-17T07:54:11.910Z,15.03
2019-01-17T07:56:43.505Z,14.37
2019-01-17T07:59:13.974Z,14.67
2019-01-17T08:01:44.668Z,16.93
2019-01-17T08:04:15.402Z,15.67
2019-01-17T08:06:46.235Z,18.43
2019-01-17T08:09:16.806Z,16.43
2019-01-17T08:11:47.388Z,17.97
2019-01-17T08:14:18.123Z,20.07
2019-01-17T08:16:48.922Z,18.97
2019-01-17T08:19:19.738Z,16.13
2019-01-17T08:21:50.489Z,16.17
2019-01-17T08:24:21.052Z,18.00
2019-01-17T08:26:51.928Z,18.00
2019-01-17T08:29:22.480Z,16.43
2019-01-17T08:31:53.059Z,18.03
2019-01-17T08:34:28.254Z,20.23
2019-01-17T08:36:55.984Z,12.50
2019-01-17T08:39:26.840Z,9.70
2019-01-17T08:41:57.384Z,8.03
2019-01-17T08:44:28.180Z,8.50
2019-01-17T08:46:58.972Z,6.03
2019-01-17T08:49:29.434Z,7.90
2019-01-17T08:52:00.128Z,7.70
2019-01-17T08:54:30.733Z,9.73
2019-01-17T08:57:01.572Z,7.87
2019-01-17T08:59:32.331Z,10.63
2019-01-17T09:02:02.844Z,8.27
2019-01-17T09:04:33.501Z,10.53
2019-01-17T09:07:04.101Z,6.97
2019-01-17T09:09:34.937Z,9.83
2019-01-17T09:12:05.846Z,7.17
2019-01-17T09:14:36.655Z,7.50
2019-01-17T09:17:07.315Z,8.93
2019-01-17T09:19:38.147Z,8.60
2019-01-17T09:22:08.762Z,7.47
2019-01-17T09:24:39.467Z,6.47
2019-01-17T09:27:10.123Z,7.23
2019-01-17T09:29:41.077Z,5.57
2019-01-17T09:32:11.561Z,4.97
2019-01-17T09:34:42.303Z,7.83
2019-01-17T09:37:13.990Z,8.67
2019-01-17T09:39:44.556Z,7.07
2019-01-17T09:42:15.102Z,7.23
2019-01-17T09:44:46.072Z,7.37
2019-01-17T09:47:16.818Z,7.00
2019-01-17T09:49:47.536Z,15.03
2019-01-17T09:52:18.060Z,10.03
2019-01-17T09:54:48.948Z,13.70
2019-01-17T09:57:19.665Z,10.53
2019-01-17T09:59:50.846Z,13.00
2019-01-17T10:02:21.273Z,10.03
2019-01-17T10:04:51.832Z,9.70
2019-01-17T10:07:22.517Z,9.30
2019-01-17T10:09:53.197Z,7.00
2019-01-17T10:12:23.852Z,11.97
2019-01-17T10:14:54.763Z,7.73
2019-01-17T10:17:45.194Z,6.13
2019-01-17T10:20:45.759Z,9.67
2019-01-17T10:23:54.607Z,6.80
2019-01-17T10:26:45.049Z,7.23
2019-01-17T10:29:56.493Z,11.03
2019-01-17T10:32:59.957Z,9.73
2019-01-17T10:36:19.079Z,8.10
2019-01-17T10:39:27.825Z,5.47
2019-01-17T10:42:24.121Z,6.00
2019-01-17T10:45:42.145Z,7.57
2019-01-17T10:49:05.900Z,6.60
2019-01-17T10:52:16.261Z,7.23
2019-01-17T10:55:33.033Z,14.60
2019-01-17T10:58:31.226Z,6.87
2019-01-17T11:01:44.717Z,7.60
2019-01-17T11:04:59.579Z,7.97
2019-01-17T11:08:07.567Z,9.37
2019-01-17T11:11:17.867Z,10.60
2019-01-17T11:14:29.298Z,9.10
2019-01-17T11:17:38.501Z,10.83
2019-01-17T11:20:35.421Z,11.83
2019-01-17T11:23:23.826Z,11.17
2019-01-17T11:26:53.484Z,16.13
2019-01-17T11:30:13.789Z,19.37
2019-01-17T11:33:34.857Z,15.30
2019-01-17T11:36:28.347Z,14.73
2019-01-17T11:39:20.105Z,12.43
2019-01-17T11:42:20.330Z,17.33
2019-01-17T11:45:25.065Z,17.17
2019-01-17T11:48:50.049Z,16.30
2019-01-17T11:51:53.938Z,16.80
2019-01-17T11:55:02.773Z,14.00
2019-01-17T11:58:35.435Z,15.50
2019-01-17T12:01:38.725Z,16.13
2019-01-17T12:04:39.429Z,14.67
2019-01-17T12:07:15.861Z,21.23
2019-01-17T12:09:46.365Z,15.30
2019-01-17T12:12:21.808Z,13.60
2019-01-17T12:14:53.986Z,9.40
2019-01-17T12:17:24.569Z,13.40
2019-01-17T12:19:55.342Z,6.33
2019-01-17T12:22:25.869Z,8.43
2019-01-17T12:24:56.552Z,6.83
2019-01-17T12:27:27.164Z,8.23
2019-01-17T12:29:57.705Z,11.20
2019-01-17T12:32:28.283Z,7.80
2019-01-17T12:34:59.058Z,9.57
2019-01-17T12:37:29.846Z,8.27
2019-01-17T12:40:00.681Z,12.77
2019-01-17T12:42:31.454Z,7.33
2019-01-17T12:45:02.034Z,8.07
2019-01-17T12:47:32.568Z,8.60
2019-01-17T12:50:03.150Z,14.00
2019-01-17T12:52:34.007Z,10.37
2019-01-17T12:55:04.869Z,13.47
2019-01-17T12:57:36.660Z,9.73
2019-01-17T13:00:10.429Z,10.73
2019-01-17T13:02:41.293Z,12.33
2019-01-17T13:05:12.492Z,12.83
2019-01-17T13:07:42.988Z,12.13
2019-01-17T13:10:14.196Z,10.77
2019-01-17T13:12:44.882Z,11.03
2019-01-17T13:15:15.531Z,10.80
2019-01-17T13:17:46.140Z,15.17
2019-01-17T13:20:17.631Z,8.77
2019-01-17T13:22:48.577Z,13.50
2019-01-17T13:25:21.274Z,16.10
2019-01-17T13:27:52.961Z,13.23
2019-01-17T13:30:24.490Z,11.43
2019-01-17T13:32:55.144Z,14.63
2019-01-17T13:35:26.753Z,10.93
2019-01-17T13:37:57.508Z,14.50
2019-01-17T13:40:28.155Z,15.80
2019-01-17T13:42:58.702Z,9.17
2019-01-17T13:45:30.645Z,10.37
2019-01-17T13:48:01.759Z,7.17
2019-01-17T13:50:32.643Z,11.77
2019-01-17T13:53:03.482Z,12.23
2019-01-17T13:55:34.337Z,10.43
2019-01-17T13:58:05.241Z,9.83
2019-01-17T14:00:35.805Z,13.07
2019-01-17T14:03:06.890Z,9.33
2019-01-17T14:05:37.756Z,10.43
2019-01-17T14:08:08.434Z,11.80
2019-01-17T14:10:39.095Z,11.70
2019-01-17T14:13:09.805Z,10.93
2019-01-17T14:15:40.451Z,9.87
2019-01-17T14:18:11.165Z,9.43
2019-01-17T14:20:41.948Z,10.87
2019-01-17T14:23:12.598Z,8.10
2019-01-17T14:25:43.407Z,9.10
2019-01-17T14:28:13.951Z,12.03
2019-01-17T14:30:44.890Z,9.13
2019-01-17T14:33:15.486Z,9.87
2019-01-17T14:35:46.237Z,12.00
2019-01-17T14:38:16.817Z,13.10
2019-01-17T14:40:47.989Z,14.20
2019-01-17T14:43:18.494Z,13.20
2019-01-17T14:45:49.659Z,14.13
2019-01-17T14:48:22.086Z,13.77
2019-01-17T14:50:52.692Z,13.60
2019-01-17T14:53:23.228Z,11.00
2019-01-17T14:55:53.908Z,13.90
2019-01-17T14:58:26.115Z,13.67
2019-01-17T15:00:56.625Z,11.00
2019-01-17T15:03:27.593Z,9.40
2019-01-17T15:05:58.055Z,8.47
2019-01-17T15:08:28.761Z,14.37
2019-01-17T15:11:02.482Z,10.83
2019-01-17T15:13:37.651Z,10.13
2019-01-17T15:16:09.453Z,9.63
2019-01-17T15:18:40.343Z,8.43
2019-01-17T15:21:10.941Z,13.30
2019-01-17T15:23:41.737Z,9.07
2019-01-17T15:26:12.442Z,10.73
2019-01-17T15:28:43.304Z,10.60
2019-01-17T15:31:14.279Z,14.20
2019-01-17T15:33:44.953Z,9.97
2019-01-17T15:36:15.830Z,11.33
2019-01-17T15:38:46.305Z,14.10
2019-01-17T15:41:18.604Z,10.83
2019-01-17T15:43:49.103Z,15.50
2019-01-17T15:46:19.605Z,17.47
2019-01-17T15:48:50.125Z,16.23
2019-01-17T15:51:21.374Z,17.77
2019-01-17T15:53:52.068Z,16.53
2019-01-17T15:56:24.190Z,18.33
2019-01-17T15:58:54.654Z,19.43
2019-01-17T16:01:27.105Z,19.07
2019-01-17T16:03:57.706Z,20.57
2019-01-17T16:06:28.386Z,18.80
2019-01-17T16:08:59.013Z,18.53
2019-01-17T16:11:29.694Z,21.50
2019-01-17T16:14:00.146Z,21.57
2019-01-17T16:16:30.941Z,20.67
2019-01-17T16:19:01.630Z,23.63
2019-01-17T16:21:32.142Z,25.47
2019-01-17T16:24:02.545Z,17.27
2019-01-17T16:26:33.889Z,35.10
2019-01-17T16:29:04.551Z,20.70
2019-01-17T16:31:35.017Z,24.43
2019-01-17T16:34:05.785Z,24.63
2019-01-17T16:36:37.384Z,22.43
2019-01-17T16:39:10.028Z,20.10
2019-01-17T16:41:40.713Z,21.17
2019-01-17T16:44:11.291Z,25.17
2019-01-17T16:46:41.891Z,20.97
2019-01-17T16:49:12.706Z,23.83
2019-01-17T16:51:43.356Z,25.77
2019-01-17T16:54:14.037Z,28.53
2019-01-17T16:56:44.719Z,25.30
2019-01-17T16:59:15.341Z,22.97
2019-01-17T17:01:46.061Z,24.00
2019-01-17T17:04:16.613Z,24.00
2019-01-17T17:06:47.329Z,23.80
2019-01-17T17:09:19.332Z,23.33
2019-01-17T17:11:49.930Z,19.83
2019-01-17T17:14:20.352Z,25.00
2019-01-17T17:16:51.083Z,22.63
2019-01-17T17:19:21.958Z,24.30
2019-01-17T17:21:52.886Z,23.67
2019-01-17T17:24:25.141Z,19.67
2019-01-17T17:26:55.960Z,18.10
2019-01-17T17:29:28.260Z,22.20
2019-01-17T17:31:59.214Z,16.23
2019-01-17T17:34:29.685Z,22.70
2019-01-17T17:37:00.885Z,27.07
2019-01-17T17:39:31.785Z,23.73
2019-01-17T17:42:04.141Z,29.93
2019-01-17T17:44:34.834Z,27.67
2019-01-17T17:47:05.663Z,20.90
2019-01-17T17:49:36.600Z,22.17
2019-01-17T17:52:07.400Z,18.63
2019-01-17T17:54:38.149Z,19.87
2019-01-17T17:57:09.023Z,25.17
2019-01-17T17:59:40.236Z,22.40
2019-01-17T18:02:19.415Z,26.30
2019-01-17T18:04:50.061Z,23.87
2019-01-17T18:07:20.686Z,26.60
2019-01-17T18:09:51.417Z,24.20
2019-01-17T18:12:22.276Z,24.00
2019-01-17T18:14:52.806Z,22.33
2019-01-17T18:17:23.539Z,23.60
2019-01-17T18:19:54.738Z,26.23
2019-01-17T18:22:25.471Z,24.03
2019-01-17T18:24:57.171Z,22.43
2019-01-17T18:27:27.801Z,22.63
2019-01-17T18:29:58.430Z,32.40
2019-01-17T18:32:29.257Z,28.07
2019-01-17T18:34:59.916Z,21.57
2019-01-17T18:37:30.775Z,29.87
2019-01-17T18:40:01.420Z,32.30
2019-01-17T18:42:32.382Z,27.37
2019-01-17T18:45:03.068Z,33.00
2019-01-17T18:47:33.746Z,35.97
2019-01-17T18:50:04.917Z,34.83
2019-01-17T18:52:36.427Z,31.90
2019-01-17T18:55:07.629Z,29.33
2019-01-17T18:57:38.420Z,23.07
2019-01-17T19:00:18.624Z,28.80
2019-01-17T19:02:49.654Z,25.20
2019-01-17T19:05:21.983Z,21.00
2019-01-17T19:07:53.036Z,22.33
2019-01-17T19:10:24.072Z,19.03
2019-01-17T19:12:55.090Z,20.83
2019-01-17T19:15:28.346Z,22.63
2019-01-17T19:17:58.839Z,23.53
2019-01-17T19:20:29.950Z,28.63
2019-01-17T19:23:00.893Z,22.47
2019-01-17T19:25:31.691Z,26.37
2019-01-17T19:28:02.558Z,27.47
2019-01-17T19:30:33.469Z,30.27
2019-01-17T19:33:05.356Z,24.57
2019-01-17T19:35:36.173Z,31.67
2019-01-17T19:38:06.938Z,27.23
2019-01-17T19:40:37.824Z,23.37
2019-01-17T19:43:08.391Z,24.73
2019-01-17T19:45:39.115Z,23.87
2019-01-17T19:48:09.739Z,24.03
2019-01-17T19:50:40.757Z,20.53
2019-01-17T19:53:11.822Z,23.20
2019-01-17T19:55:42.609Z,16.83
2019-01-17T19:58:13.279Z,21.83
2019-01-17T20:00:43.930Z,25.43
2019-01-17T20:03:14.907Z,19.13
2019-01-17T20:05:45.870Z,18.70
2019-01-17T20:08:16.562Z,20.20
2019-01-17T20:10:47.365Z,18.77
2019-01-17T20:13:18.077Z,19.07
2019-01-17T20:15:50.317Z,26.27
2019-01-17T20:18:21.251Z,17.97
2019-01-17T20:20:52.444Z,18.27
2019-01-17T20:23:24.330Z,21.07
2019-01-17T20:25:54.930Z,25.57
2019-01-17T20:28:26.031Z,18.30
2019-01-17T20:30:57.030Z,24.33
2019-01-17T20:33:28.060Z,16.57
2019-01-17T20:36:33.472Z,15.27
2019-01-17T20:39:05.095Z,15.90
2019-01-17T20:41:36.340Z,17.80
2019-01-17T20:44:07.107Z,19.63
2019-01-17T20:46:38.147Z,18.07
2019-01-17T20:49:08.912Z,24.80
2019-01-17T20:51:39.693Z,17.27
2019-01-17T20:54:10.386Z,17.70
2019-01-17T20:56:41.281Z,18.73
2019-01-17T20:59:12.067Z,20.47
2019-01-17T21:01:56.015Z,19.53
2019-01-17T21:04:27.047Z,22.20
2019-01-17T21:06:57.848Z,19.50
2019-01-17T21:09:28.751Z,21.33
2019-01-17T21:11:59.518Z,22.10
2019-01-17T21:14:30.327Z,21.83
2019-01-17T21:17:01.000Z,19.07
2019-01-17T21:19:32.078Z,16.83
2019-01-17T21:22:02.904Z,20.03
2019-01-17T21:24:34.014Z,18.30
2019-01-17T21:27:04.792Z,17.53
2019-01-17T21:29:35.506Z,20.20
2019-01-17T21:32:06.297Z,18.40
2019-01-17T21:34:36.934Z,17.53
2019-01-17T21:37:07.740Z,18.67
2019-01-17T21:39:38.426Z,17.33
2019-01-17T21:42:09.102Z,17.40
2019-01-17T21:44:40.330Z,16.40
2019-01-17T21:47:11.346Z,15.93
2019-01-17T21:49:43.286Z,15.33
2019-01-17T21:52:14.210Z,19.97
2019-01-17T21:54:44.864Z,14.67
2019-01-17T21:57:15.500Z,12.70
2019-01-17T21:59:46.560Z,15.80
2019-01-17T22:02:17.462Z,14.00
2019-01-17T22:04:49.092Z,11.40
2019-01-17T22:07:20.278Z,16.23
2019-01-17T22:09:51.516Z,23.73
2019-01-17T22:12:22.188Z,14.07
2019-01-17T22:14:52.879Z,15.73
2019-01-17T22:17:23.949Z,13.73
2019-01-17T22:19:55.063Z,13.20
2019-01-17T22:22:25.710Z,13.57
2019-01-17T22:24:56.483Z,16.13
2019-01-17T22:27:27.238Z,16.23
2019-01-17T22:29:58.189Z,13.40
2019-01-17T22:32:28.961Z,10.47
2019-01-17T22:34:59.618Z,16.37
2019-01-17T22:37:30.347Z,13.77
2019-01-17T22:40:01.282Z,19.17
2019-01-17T22:42:31.929Z,10.43
2019-01-17T22:45:02.989Z,12.23
2019-01-17T22:47:33.668Z,17.57
2019-01-17T22:50:05.363Z,13.70
2019-01-17T22:52:35.847Z,12.50
2019-01-17T22:55:07.228Z,14.27
2019-01-17T22:57:39.092Z,13.80
2019-01-17T23:00:34.755Z,10.80
2019-01-17T23:03:06.998Z,16.53
2019-01-17T23:05:37.665Z,10.70
2019-01-17T23:08:08.497Z,15.53
2019-01-17T23:10:39.278Z,10.73
2019-01-17T23:13:10.097Z,11.20
2019-01-17T23:15:41.134Z,15.07
2019-01-17T23:18:11.974Z,12.40
2019-01-17T23:20:42.642Z,13.33
2019-01-17T23:23:13.758Z,14.93
2019-01-17T23:25:44.449Z,14.93
2019-01-17T23:28:15.568Z,11.87
2019-01-17T23:30:46.289Z,10.93
2019-01-17T23:33:17.010Z,11.17
2019-01-17T23:35:47.723Z,11.77
2019-01-17T23:38:18.405Z,11.13
2019-01-17T23:40:50.130Z,11.63
2019-01-17T23:43:20.801Z,14.10
2019-01-17T23:45:51.653Z,9.03
2019-01-17T23:48:22.265Z,8.93
2019-01-17T23:50:52.708Z,8.70
2019-01-17T23:53:23.293Z,7.40
2019-01-17T23:55:53.703Z,9.20
2019-01-17T23:58:24.169Z,11.63
